Time;durP1;ratioP1;P1;durP2;ratioP2;P2;SDS_P1;SDS_P2;PMS_P1;PMS_P2;Temp;Humidity;BMP_temperature;BMP_pressure;BME280_temperature;BME280_humidity;BME280_pressure;Samples;Min_cycle;Max_cycle;Signal;HPM_P1;HPM_P2
2023/08/17 00:00:38;;;;;;;10.40;6.28;;;;;;;;;;5036511;28;20032;-60
2023/08/17 00:03:04;;;;;;;8.75;5.95;;;;;;;;;;5018526;28;20041;-59
2023/08/17 00:05:32;;;;;;;10.55;6.50;;;;;;;;;;5025982;28;20041;-60
2023/08/17 00:08:00;;;;;;;10.55;5.85;;;;;;;;;;5036397;28;20493;-60
2023/08/17 00:10:27;;;;;;;9.53;6.90;;;;;;;;;;5030314;28;20067;-60
2023/08/17 00:12:53;;;;;;;11.77;6.70;;;;;;;;;;5028609;28;20300;-60
2023/08/17 00:15:19;;;;;;;9.82;6.05;;;;;;;;;;5031081;28;20508;-60
2023/08/17 00:17:45;;;;;;;10.38;6.32;;;;;;;;;;5036100;28;20037;-60
2023/08/17 00:20:11;;;;;;;12.18;6.60;;;;;;;;;;5033278;28;20492;-60
2023/08/17 00:22:38;;;;;;;9.32;6.70;;;;;;;;;;5031448;28;20033;-60
2023/08/17 00:25:04;;;;;;;8.10;5.78;;;;;;;;;;5033231;28;20512;-60
2023/08/17 00:27:34;;;;;;;10.90;6.25;;;;;;;;;;5027386;28;20057;-60
2023/08/17 00:30:03;;;;;;;9.75;5.93;;;;;;;;;;5029326;28;20045;-60
2023/08/17 00:32:35;;;;;;;9.90;6.00;;;;;;;;;;5022603;28;20045;-60
2023/08/17 00:35:01;;;;;;;8.07;6.25;;;;;;;;;;5024963;28;20404;-60
2023/08/17 00:37:28;;;;;;;10.90;5.80;;;;;;;;;;5031659;28;20072;-60
2023/08/17 00:39:54;;;;;;;10.15;6.10;;;;;;;;;;5031941;28;20044;-60
2023/08/17 00:42:20;;;;;;;8.68;6.07;;;;;;;;;;5023907;28;20436;-59
2023/08/17 00:44:46;;;;;;;9.85;6.28;;;;;;;;;;5033041;28;20053;-60
2023/08/17 00:47:14;;;;;;;13.82;6.32;;;;;;;;;;5010269;28;20036;-60
2023/08/17 00:49:40;;;;;;;9.63;6.30;;;;;;;;;;5032919;28;20037;-59
2023/08/17 00:52:07;;;;;;;13.63;6.80;;;;;;;;;;5025928;28;20036;-59
2023/08/17 00:54:33;;;;;;;13.45;6.00;;;;;;;;;;5004489;28;20046;-60
2023/08/17 00:57:00;;;;;;;9.50;5.90;;;;;;;;;;5021266;28;20137;-60
2023/08/17 00:59:27;;;;;;;13.63;6.10;;;;;;;;;;5026823;28;20512;-59
2023/08/17 01:01:53;;;;;;;11.20;6.82;;;;;;;;;;5029613;28;20049;-60
2023/08/17 01:04:19;;;;;;;9.82;6.50;;;;;;;;;;5029931;28;20037;-60
2023/08/17 01:06:46;;;;;;;13.07;6.07;;;;;;;;;;5038716;28;20398;-60
2023/08/17 01:09:12;;;;;;;8.57;5.78;;;;;;;;;;5039285;28;20049;-60
2023/08/17 01:11:46;;;;;;;9.00;6.38;;;;;;;;;;5032941;28;20037;-59
2023/08/17 01:14:24;;;;;;;9.27;6.13;;;;;;;;;;5032353;28;20509;-59
2023/08/17 01:17:10;;;;;;;8.20;6.30;;;;;;;;;;5033367;28;20401;-60
2023/08/17 01:19:38;;;;;;;8.80;6.05;;;;;;;;;;5033484;28;20417;-59
2023/08/17 01:22:08;;;;;;;11.02;6.43;;;;;;;;;;5023564;28;20021;-59
2023/08/17 01:24:34;;;;;;;14.65;6.40;;;;;;;;;;5029962;28;20099;-60
2023/08/17 01:27:00;;;;;;;11.05;6.20;;;;;;;;;;5034183;28;20037;-60
2023/08/17 01:29:27;;;;;;;13.88;6.47;;;;;;;;;;5031740;28;20044;-60
2023/08/17 01:32:09;;;;;;;8.98;5.75;;;;;;;;;;5029361;28;20049;-59
2023/08/17 01:34:44;;;;;;;8.45;6.22;;;;;;;;;;5029459;28;20044;-59
2023/08/17 01:37:13;;;;;;;12.13;6.50;;;;;;;;;;5028763;28;20040;-59
2023/08/17 01:39:44;;;;;;;13.40;7.00;;;;;;;;;;5023255;28;20056;-59
2023/08/17 01:42:12;;;;;;;11.50;6.28;;;;;;;;;;5021348;28;20480;-60
2023/08/17 01:44:39;;;;;;;10.98;6.30;;;;;;;;;;5029900;28;20041;-59
2023/08/17 01:47:05;;;;;;;9.68;6.55;;;;;;;;;;5025853;28;20044;-60
2023/08/17 01:49:32;;;;;;;11.70;6.55;;;;;;;;;;5032992;28;20508;-60
2023/08/17 01:51:59;;;;;;;11.23;6.90;;;;;;;;;;5035640;28;20049;-60
2023/08/17 01:54:25;;;;;;;12.02;7.47;;;;;;;;;;5028273;28;20052;-59
2023/08/17 01:56:51;;;;;;;10.80;6.28;;;;;;;;;;5036539;28;20408;-59
2023/08/17 01:59:18;;;;;;;11.95;6.43;;;;;;;;;;5014865;28;20056;-60
2023/08/17 02:01:44;;;;;;;10.05;6.65;;;;;;;;;;5021021;28;20029;-61
2023/08/17 02:04:10;;;;;;;11.32;7.43;;;;;;;;;;5039094;28;20041;-59
2023/08/17 02:06:38;;;;;;;10.40;6.32;;;;;;;;;;5035207;28;20049;-60
2023/08/17 02:09:04;;;;;;;10.43;6.63;;;;;;;;;;5031724;28;20045;-59
2023/08/17 02:11:30;;;;;;;11.05;6.35;;;;;;;;;;5040176;28;20496;-59
2023/08/17 02:13:57;;;;;;;10.70;6.35;;;;;;;;;;5030744;28;20041;-60
2023/08/17 02:16:23;;;;;;;13.93;7.00;;;;;;;;;;5032528;28;20034;-60
2023/08/17 02:18:49;;;;;;;12.57;6.90;;;;;;;;;;5029838;28;20049;-60
2023/08/17 02:21:15;;;;;;;14.45;6.93;;;;;;;;;;5029313;28;20045;-60
2023/08/17 02:23:41;;;;;;;13.30;6.32;;;;;;;;;;5028601;28;20037;-60
2023/08/17 02:26:07;;;;;;;12.52;7.45;;;;;;;;;;5029425;28;20040;-60
2023/08/17 02:28:33;;;;;;;12.55;7.00;;;;;;;;;;5026846;28;20057;-59
2023/08/17 02:30:59;;;;;;;9.32;6.70;;;;;;;;;;5032172;28;20451;-60
2023/08/17 02:33:28;;;;;;;11.52;7.28;;;;;;;;;;5027895;28;20033;-60
2023/08/17 02:35:54;;;;;;;10.98;7.22;;;;;;;;;;5033826;28;20033;-60
2023/08/17 02:38:20;;;;;;;13.13;7.38;;;;;;;;;;5024582;28;20042;-59
2023/08/17 02:40:49;;;;;;;11.48;7.40;;;;;;;;;;5028713;28;20050;-61
2023/08/17 02:43:15;;;;;;;10.17;7.50;;;;;;;;;;5024857;28;20029;-59
2023/08/17 02:45:42;;;;;;;11.55;8.05;;;;;;;;;;5035346;28;20127;-58
2023/08/17 02:48:08;;;;;;;17.75;7.82;;;;;;;;;;5034997;28;20041;-60
2023/08/17 02:50:34;;;;;;;14.85;7.40;;;;;;;;;;5029524;28;20038;-61
2023/08/17 02:53:01;;;;;;;10.07;7.43;;;;;;;;;;5023577;28;20041;-60
2023/08/17 02:55:28;;;;;;;13.10;7.80;;;;;;;;;;5024554;28;20029;-60
2023/08/17 02:57:54;;;;;;;12.15;8.20;;;;;;;;;;5035978;28;20056;-60
2023/08/17 03:00:20;;;;;;;13.68;8.27;;;;;;;;;;5032505;28;20049;-60
2023/08/17 03:02:46;;;;;;;13.18;8.02;;;;;;;;;;5030874;28;20034;-60
2023/08/17 03:05:12;;;;;;;12.85;8.57;;;;;;;;;;5034089;28;20049;-60
2023/08/17 03:07:39;;;;;;;12.45;7.63;;;;;;;;;;5023517;28;20045;-59
2023/08/17 03:10:06;;;;;;;16.83;8.20;;;;;;;;;;5035019;28;20037;-59
2023/08/17 03:12:32;;;;;;;17.70;7.95;;;;;;;;;;5035996;28;20236;-59
2023/08/17 03:14:59;;;;;;;12.50;7.88;;;;;;;;;;5038847;28;20038;-59
2023/08/17 03:17:25;;;;;;;11.90;7.95;;;;;;;;;;5033312;28;20037;-60
2023/08/17 03:19:51;;;;;;;12.77;8.73;;;;;;;;;;5027336;28;20413;-60
2023/08/17 03:22:17;;;;;;;13.00;8.55;;;;;;;;;;5028386;28;20033;-60
2023/08/17 03:24:43;;;;;;;10.98;7.57;;;;;;;;;;5027873;28;20048;-60
2023/08/17 03:27:10;;;;;;;13.68;7.90;;;;;;;;;;5027435;28;20390;-59
2023/08/17 03:29:36;;;;;;;11.18;8.10;;;;;;;;;;5028008;28;20060;-60
2023/08/17 03:32:02;;;;;;;12.57;8.25;;;;;;;;;;5043785;28;20517;-60
2023/08/17 03:34:29;;;;;;;11.93;7.72;;;;;;;;;;5026175;28;20539;-59
2023/08/17 03:36:55;;;;;;;17.33;8.07;;;;;;;;;;5035279;28;20044;-59
2023/08/17 03:39:21;;;;;;;12.30;8.05;;;;;;;;;;5031933;28;20034;-61
2023/08/17 03:41:47;;;;;;;18.05;8.98;;;;;;;;;;5024054;28;20418;-60
2023/08/17 03:44:15;;;;;;;15.43;8.50;;;;;;;;;;5024042;28;20049;-59
2023/08/17 03:46:41;;;;;;;15.50;8.48;;;;;;;;;;5007515;28;20033;-59
2023/08/17 03:49:07;;;;;;;14.75;7.65;;;;;;;;;;5034293;28;20497;-59
2023/08/17 03:51:33;;;;;;;20.33;8.07;;;;;;;;;;5034882;28;20029;-59
2023/08/17 03:54:00;;;;;;;12.23;8.23;;;;;;;;;;5028221;28;20049;-58
2023/08/17 03:56:26;;;;;;;15.77;8.57;;;;;;;;;;5033756;28;20500;-60
2023/08/17 03:58:53;;;;;;;11.68;7.70;;;;;;;;;;5029369;28;20037;-59
2023/08/17 04:01:19;;;;;;;14.57;8.20;;;;;;;;;;5035764;28;20052;-60
2023/08/17 04:03:45;;;;;;;13.88;7.97;;;;;;;;;;5034496;28;20037;-59
2023/08/17 04:06:13;;;;;;;11.50;7.63;;;;;;;;;;5032284;28;20495;-60
2023/08/17 04:08:39;;;;;;;11.45;7.60;;;;;;;;;;5040213;28;20036;-59
2023/08/17 04:11:05;;;;;;;13.80;8.10;;;;;;;;;;5037350;28;20036;-59
2023/08/17 04:13:32;;;;;;;18.42;8.23;;;;;;;;;;5028119;28;20099;-59
2023/08/17 04:15:58;;;;;;;12.05;7.82;;;;;;;;;;5036369;28;20033;-59
2023/08/17 04:18:24;;;;;;;14.40;8.15;;;;;;;;;;5027127;28;20420;-61
2023/08/17 04:20:50;;;;;;;15.50;8.60;;;;;;;;;;5025332;28;20038;-58
2023/08/17 04:23:17;;;;;;;13.30;7.55;;;;;;;;;;5012839;28;20049;-59
2023/08/17 04:25:43;;;;;;;10.70;7.25;;;;;;;;;;5027190;28;20062;-59
2023/08/17 04:28:09;;;;;;;11.40;7.90;;;;;;;;;;5029215;28;20121;-60
2023/08/17 04:30:37;;;;;;;13.13;8.27;;;;;;;;;;5031251;28;20539;-59
2023/08/17 04:33:04;;;;;;;12.18;7.43;;;;;;;;;;5030498;28;20041;-60
2023/08/17 04:35:30;;;;;;;14.85;7.30;;;;;;;;;;5032103;28;20041;-59
2023/08/17 04:37:56;;;;;;;12.57;7.82;;;;;;;;;;5024448;28;20101;-60
2023/08/17 04:40:23;;;;;;;14.50;7.45;;;;;;;;;;5037065;28;20516;-60
2023/08/17 04:42:49;;;;;;;10.88;7.55;;;;;;;;;;5026736;28;20533;-59
2023/08/17 04:45:15;;;;;;;11.35;7.03;;;;;;;;;;5028041;28;20044;-59
2023/08/17 04:47:44;;;;;;;12.10;8.00;;;;;;;;;;5033260;28;20045;-59
2023/08/17 04:50:15;;;;;;;13.40;6.75;;;;;;;;;;5022634;28;20498;-59
2023/08/17 04:52:45;;;;;;;12.98;7.70;;;;;;;;;;5029288;28;20049;-60
2023/08/17 04:55:14;;;;;;;12.70;7.63;;;;;;;;;;5034906;28;20401;-59
2023/08/17 04:57:42;;;;;;;11.52;7.03;;;;;;;;;;5028257;28;20409;-60
2023/08/17 05:00:11;;;;;;;13.10;8.02;;;;;;;;;;5033157;28;20064;-59
2023/08/17 05:02:39;;;;;;;13.50;7.95;;;;;;;;;;5031331;28;20037;-59
2023/08/17 05:05:07;;;;;;;14.75;8.55;;;;;;;;;;5035422;28;20405;-59
2023/08/17 05:07:34;;;;;;;15.23;8.45;;;;;;;;;;5043679;28;20424;-59
2023/08/17 05:10:01;;;;;;;12.98;9.00;;;;;;;;;;5033619;28;20408;-60
2023/08/17 05:12:28;;;;;;;15.60;8.70;;;;;;;;;;5010381;28;20041;-61
2023/08/17 05:14:54;;;;;;;14.00;7.80;;;;;;;;;;5029040;28;20389;-60
2023/08/17 05:17:20;;;;;;;12.02;7.38;;;;;;;;;;5029928;28;20041;-61
2023/08/17 05:19:47;;;;;;;14.73;8.15;;;;;;;;;;5030159;28;20048;-60
2023/08/17 05:22:15;;;;;;;12.73;8.23;;;;;;;;;;5032061;28;20477;-61
2023/08/17 05:24:41;;;;;;;17.73;7.95;;;;;;;;;;5035363;28;20041;-60
2023/08/17 05:27:07;;;;;;;12.85;8.15;;;;;;;;;;5033838;28;20053;-60
2023/08/17 05:29:34;;;;;;;15.30;8.70;;;;;;;;;;5024733;28;20041;-60
2023/08/17 05:32:00;;;;;;;17.30;9.02;;;;;;;;;;5033543;28;20056;-60
2023/08/17 05:34:27;;;;;;;16.48;8.95;;;;;;;;;;5034626;28;20409;-60
2023/08/17 05:36:54;;;;;;;14.32;8.60;;;;;;;;;;5032543;28;20037;-60
2023/08/17 05:39:20;;;;;;;19.20;9.15;;;;;;;;;;5026721;28;20038;-61
2023/08/17 05:41:47;;;;;;;16.65;9.23;;;;;;;;;;5024479;28;20410;-60
2023/08/17 05:44:14;;;;;;;14.73;8.27;;;;;;;;;;5029791;28;20037;-60
2023/08/17 05:46:41;;;;;;;17.02;9.63;;;;;;;;;;5029426;28;20049;-60
2023/08/17 05:49:07;;;;;;;17.02;9.60;;;;;;;;;;5031851;28;20424;-60
2023/08/17 05:51:34;;;;;;;14.00;9.75;;;;;;;;;;5029571;28;20040;-61
2023/08/17 05:54:00;;;;;;;17.27;10.40;;;;;;;;;;5033402;28;20057;-60
2023/08/17 05:56:26;;;;;;;19.10;10.15;;;;;;;;;;5030513;28;20037;-60
2023/08/17 05:58:52;;;;;;;17.70;9.50;;;;;;;;;;5039123;28;20029;-60
2023/08/17 06:01:18;;;;;;;16.50;9.68;;;;;;;;;;5032460;28;20458;-61
2023/08/17 06:03:45;;;;;;;15.48;9.88;;;;;;;;;;5029515;28;20050;-60
2023/08/17 06:06:11;;;;;;;15.25;9.52;;;;;;;;;;5040769;28;20052;-61
2023/08/17 06:08:37;;;;;;;18.65;10.85;;;;;;;;;;5040288;28;20048;-60
2023/08/17 06:11:03;;;;;;;17.50;10.27;;;;;;;;;;5033202;28;20052;-59
2023/08/17 06:13:30;;;;;;;16.55;10.32;;;;;;;;;;5032195;28;20204;-59
2023/08/17 06:15:57;;;;;;;17.42;10.05;;;;;;;;;;5032673;28;20037;-59
2023/08/17 06:18:23;;;;;;;17.77;11.13;;;;;;;;;;5029995;28;20421;-60
2023/08/17 06:20:51;;;;;;;25.77;12.60;;;;;;;;;;5030002;28;20421;-62
2023/08/17 06:23:18;;;;;;;18.85;11.63;;;;;;;;;;5028512;28;20046;-61
2023/08/17 06:25:44;;;;;;;20.08;11.50;;;;;;;;;;5030299;28;20417;-60
2023/08/17 06:28:10;;;;;;;18.33;10.57;;;;;;;;;;5030390;28;20417;-60
2023/08/17 06:30:36;;;;;;;17.63;10.80;;;;;;;;;;5035111;28;20041;-60
2023/08/17 06:33:02;;;;;;;18.95;11.70;;;;;;;;;;5022631;28;20056;-61
2023/08/17 06:35:29;;;;;;;27.42;11.60;;;;;;;;;;5029188;28;20048;-61
2023/08/17 06:37:57;;;;;;;23.55;12.70;;;;;;;;;;5031512;28;20051;-60
2023/08/17 06:40:24;;;;;;;26.20;12.87;;;;;;;;;;5023150;28;20095;-60
2023/08/17 06:42:52;;;;;;;26.35;14.48;;;;;;;;;;5027620;28;20297;-59
2023/08/17 06:45:18;;;;;;;26.52;12.77;;;;;;;;;;5034044;28;20060;-60
2023/08/17 06:47:45;;;;;;;25.95;13.95;;;;;;;;;;5031416;28;20037;-61
2023/08/17 06:50:11;;;;;;;27.10;14.40;;;;;;;;;;5021425;28;20062;-59
2023/08/17 06:52:39;;;;;;;23.27;12.35;;;;;;;;;;5028409;28;20037;-60
2023/08/17 06:55:05;;;;;;;24.23;12.50;;;;;;;;;;5036790;28;20390;-60
2023/08/17 06:57:31;;;;;;;22.88;12.82;;;;;;;;;;5035438;28;20404;-61
2023/08/17 06:59:57;;;;;;;19.58;11.38;;;;;;;;;;5049829;28;20044;-60
2023/08/17 07:02:23;;;;;;;17.70;11.20;;;;;;;;;;5009053;28;20042;-60
2023/08/17 07:04:49;;;;;;;20.08;11.93;;;;;;;;;;5030144;28;20049;-61
2023/08/17 07:07:15;;;;;;;17.40;10.75;;;;;;;;;;5041299;28;20037;-61
2023/08/17 07:09:42;;;;;;;21.00;11.88;;;;;;;;;;5042967;28;20056;-63
2023/08/17 07:12:16;;;;;;;17.88;11.48;;;;;;;;;;5035475;28;20670;-62
2023/08/17 07:14:43;;;;;;;18.02;11.13;;;;;;;;;;5029273;28;20038;-58
2023/08/17 07:17:09;;;;;;;22.88;11.85;;;;;;;;;;5031203;28;20052;-60
2023/08/17 07:19:38;;;;;;;19.85;12.57;;;;;;;;;;5032803;28;20529;-61
2023/08/17 07:22:07;;;;;;;19.48;11.25;;;;;;;;;;5028463;28;20049;-61
2023/08/17 07:24:33;;;;;;;17.50;11.15;;;;;;;;;;5029264;28;20471;-60
2023/08/17 07:26:59;;;;;;;20.63;12.05;;;;;;;;;;5031389;28;20037;-62
2023/08/17 07:29:25;;;;;;;21.48;11.40;;;;;;;;;;5028546;28;20073;-60
2023/08/17 07:31:53;;;;;;;17.25;11.55;;;;;;;;;;5027008;28;20045;-60
2023/08/17 07:34:20;;;;;;;21.30;12.00;;;;;;;;;;5028593;28;20046;-60
2023/08/17 07:36:46;;;;;;;20.63;11.38;;;;;;;;;;5037633;28;20047;-59
2023/08/17 07:39:13;;;;;;;16.52;10.70;;;;;;;;;;5035148;28;20409;-60
2023/08/17 07:41:39;;;;;;;19.00;11.07;;;;;;;;;;5029289;28;20034;-60
2023/08/17 07:44:05;;;;;;;18.15;11.00;;;;;;;;;;5027317;28;20428;-61
2023/08/17 07:46:31;;;;;;;16.77;10.52;;;;;;;;;;5035888;28;20057;-60
2023/08/17 07:48:57;;;;;;;16.67;10.52;;;;;;;;;;5021929;28;20404;-60
2023/08/17 07:51:23;;;;;;;18.38;10.95;;;;;;;;;;5025543;28;20080;-59
2023/08/17 07:53:50;;;;;;;18.95;10.73;;;;;;;;;;5030330;28;20034;-60
2023/08/17 07:56:16;;;;;;;18.30;10.43;;;;;;;;;;5036846;28;20049;-61
2023/08/17 07:58:42;;;;;;;17.50;10.27;;;;;;;;;;5029943;28;20045;-60
2023/08/17 08:01:08;;;;;;;15.38;9.63;;;;;;;;;;5030243;28;20064;-61
2023/08/17 08:03:34;;;;;;;18.83;10.75;;;;;;;;;;5028820;28;20042;-59
2023/08/17 08:06:00;;;;;;;19.83;10.65;;;;;;;;;;5030153;28;20061;-61
2023/08/17 08:08:26;;;;;;;17.48;11.75;;;;;;;;;;5027161;28;20112;-59
2023/08/17 08:10:54;;;;;;;18.95;10.35;;;;;;;;;;5034198;28;20029;-60
2023/08/17 08:13:20;;;;;;;15.68;10.55;;;;;;;;;;5027261;28;20045;-61
2023/08/17 08:15:46;;;;;;;17.92;10.70;;;;;;;;;;5028265;28;20041;-60
2023/08/17 08:18:12;;;;;;;17.50;11.57;;;;;;;;;;5027321;28;20049;-60
2023/08/17 08:20:38;;;;;;;20.27;11.45;;;;;;;;;;5023714;28;20042;-59
2023/08/17 08:23:04;;;;;;;15.52;10.15;;;;;;;;;;5027253;28;20029;-60
2023/08/17 08:25:31;;;;;;;15.77;10.02;;;;;;;;;;5032655;28;20531;-60
2023/08/17 08:27:57;;;;;;;18.42;10.40;;;;;;;;;;5030851;28;20053;-61
2023/08/17 08:30:23;;;;;;;15.02;10.32;;;;;;;;;;5026083;28;20048;-60
2023/08/17 08:32:50;;;;;;;15.30;9.90;;;;;;;;;;5021923;28;20038;-61
2023/08/17 08:35:16;;;;;;;17.70;11.10;;;;;;;;;;5033609;28;20425;-60
2023/08/17 08:37:42;;;;;;;20.08;10.38;;;;;;;;;;5032290;28;20041;-60
2023/08/17 08:40:12;;;;;;;18.42;10.73;;;;;;;;;;5034949;28;20037;-60
2023/08/17 08:42:39;;;;;;;16.58;10.10;;;;;;;;;;5030135;28;20041;-60
2023/08/17 08:45:05;;;;;;;21.80;9.98;;;;;;;;;;5028178;28;20033;-60
2023/08/17 08:47:34;;;;;;;16.13;9.32;;;;;;;;;;5022338;28;20041;-60
2023/08/17 08:50:02;;;;;;;17.48;10.30;;;;;;;;;;5032959;28;20753;-60
2023/08/17 08:52:33;;;;;;;15.60;10.57;;;;;;;;;;5018370;28;20049;-60
2023/08/17 08:55:02;;;;;;;;;;;;;;;;;;5037268;28;20053;-61
2023/08/17 08:57:29;;;;;;;15.48;10.27;;;;;;;;;;5039873;28;19913;-60
2023/08/17 08:59:56;;;;;;;17.70;11.05;;;;;;;;;;5037170;28;20037;-60
2023/08/17 09:02:23;;;;;;;18.23;10.93;;;;;;;;;;5028252;28;20060;-60
2023/08/17 09:04:50;;;;;;;16.02;9.85;;;;;;;;;;5029218;28;20049;-60
2023/08/17 09:07:19;;;;;;;14.85;10.27;;;;;;;;;;5040513;28;20412;-60
2023/08/17 09:09:45;;;;;;;14.75;10.05;;;;;;;;;;5028587;28;20049;-61
2023/08/17 09:12:12;;;;;;;17.23;10.65;;;;;;;;;;5027005;28;20041;-60
2023/08/17 09:14:39;;;;;;;13.30;10.25;;;;;;;;;;5030366;28;20060;-60
2023/08/17 09:17:05;;;;;;;14.55;10.52;;;;;;;;;;5026239;28;20520;-61
2023/08/17 09:19:33;;;;;;;17.75;10.05;;;;;;;;;;5032554;28;20058;-61
2023/08/17 09:22:00;;;;;;;15.70;9.95;;;;;;;;;;5030857;28;20056;-60
2023/08/17 09:24:36;;;;;;;16.15;9.68;;;;;;;;;;5027199;28;20493;-61
2023/08/17 09:27:12;;;;;;;13.90;10.02;;;;;;;;;;5033822;28;20051;-61
2023/08/17 09:29:43;;;;;;;14.73;10.55;;;;;;;;;;5031947;28;20033;-61
2023/08/17 09:32:11;;;;;;;16.33;10.73;;;;;;;;;;5029282;28;20037;-61
2023/08/17 09:34:37;;;;;;;17.50;10.57;;;;;;;;;;5028172;28;20497;-61
2023/08/17 09:37:04;;;;;;;15.25;10.05;;;;;;;;;;5031348;28;20037;-61
2023/08/17 09:39:31;;;;;;;13.68;10.48;;;;;;;;;;5032747;28;20034;-61
2023/08/17 09:41:59;;;;;;;14.75;10.00;;;;;;;;;;5036874;28;20401;-60
2023/08/17 09:44:25;;;;;;;12.68;9.70;;;;;;;;;;5026168;28;20040;-61
2023/08/17 09:46:57;;;;;;;13.95;10.02;;;;;;;;;;5031635;28;20045;-60
2023/08/17 09:49:26;;;;;;;15.60;10.40;;;;;;;;;;5033166;28;20044;-61
2023/08/17 09:51:59;;;;;;;16.90;9.98;;;;;;;;;;5038999;28;20070;-61
2023/08/17 09:54:28;;;;;;;17.98;10.50;;;;;;;;;;5036862;28;20500;-61
2023/08/17 09:56:54;;;;;;;;;;;;;;;;;;5041166;28;20056;-61
2023/08/17 09:59:20;;;;;;;14.90;10.73;;;;;;;;;;5032450;28;19913;-61
2023/08/17 10:01:50;;;;;;;14.82;10.05;;;;;;;;;;5037597;28;20037;-61
2023/08/17 10:04:21;;;;;;;17.98;10.55;;;;;;;;;;5027462;28;20045;-61
2023/08/17 10:06:58;;;;;;;13.40;9.63;;;;;;;;;;5041053;28;20037;-61
2023/08/17 10:09:28;;;;;;;15.07;9.98;;;;;;;;;;5041048;28;20061;-60
2023/08/17 10:11:57;;;;;;;14.30;9.43;;;;;;;;;;5030428;28;20034;-61
2023/08/17 10:14:30;;;;;;;14.90;9.73;;;;;;;;;;5031554;28;20048;-62
2023/08/17 10:17:12;;;;;;;14.60;9.07;;;;;;;;;;5032649;28;20033;-61
2023/08/17 10:19:56;;;;;;;12.68;9.25;;;;;;;;;;5030551;28;20045;-60
2023/08/17 10:22:36;;;;;;;14.82;9.00;;;;;;;;;;5029941;28;20037;-62
2023/08/17 10:25:05;;;;;;;14.30;9.57;;;;;;;;;;5027563;28;20041;-61
2023/08/17 10:27:33;;;;;;;12.15;9.05;;;;;;;;;;5033216;28;20049;-61
2023/08/17 10:30:01;;;;;;;12.47;8.80;;;;;;;;;;5027307;28;20044;-61
2023/08/17 10:32:28;;;;;;;14.23;8.77;;;;;;;;;;5034999;28;20057;-61
2023/08/17 10:34:55;;;;;;;10.73;8.73;;;;;;;;;;5026557;28;20118;-61
2023/08/17 10:37:23;;;;;;;11.43;8.93;;;;;;;;;;5030997;28;20193;-61
2023/08/17 10:39:50;;;;;;;12.27;9.05;;;;;;;;;;5028149;28;20068;-62
2023/08/17 10:42:32;;;;;;;11.25;9.25;;;;;;;;;;5032439;28;20030;-61
2023/08/17 10:45:01;;;;;;;10.82;8.82;;;;;;;;;;5023985;28;20033;-62
2023/08/17 10:47:29;;;;;;;13.25;9.27;;;;;;;;;;5027867;28;20056;-62
2023/08/17 10:50:01;;;;;;;14.38;9.00;;;;;;;;;;5031929;28;20064;-62
2023/08/17 10:52:29;;;;;;;10.45;8.52;;;;;;;;;;5026348;28;20405;-61
2023/08/17 10:54:56;;;;;;;10.93;9.00;;;;;;;;;;5038261;28;20516;-62
2023/08/17 10:57:29;;;;;;;10.35;7.82;;;;;;;;;;5032278;28;20053;-62
2023/08/17 11:00:15;;;;;;;9.57;8.30;;;;;;;;;;5030811;28;20037;-61
2023/08/17 11:02:44;;;;;;;12.20;8.55;;;;;;;;;;5029216;28;20064;-62
2023/08/17 11:05:12;;;;;;;10.40;8.52;;;;;;;;;;5035024;28;20041;-62
2023/08/17 11:07:40;;;;;;;10.57;8.82;;;;;;;;;;5032487;28;20041;-62
2023/08/17 11:10:28;;;;;;;9.57;7.78;;;;;;;;;;5021147;28;20048;-62
2023/08/17 11:12:59;;;;;;;11.98;8.82;;;;;;;;;;5030794;28;20109;-62
2023/08/17 11:15:34;;;;;;;10.07;8.15;;;;;;;;;;5030618;28;20033;-62
2023/08/17 11:18:07;;;;;;;10.98;8.05;;;;;;;;;;5028636;28;20029;-62
2023/08/17 11:20:41;;;;;;;11.05;8.88;;;;;;;;;;5027700;28;20038;-62
2023/08/17 11:23:09;;;;;;;12.05;8.15;;;;;;;;;;5025181;28;20072;-62
2023/08/17 11:25:37;;;;;;;12.45;8.75;;;;;;;;;;5027535;28;20034;-62
2023/08/17 11:28:06;;;;;;;11.80;7.95;;;;;;;;;;5025875;28;20033;-61
2023/08/17 11:30:34;;;;;;;10.40;8.35;;;;;;;;;;5031413;28;20118;-62
2023/08/17 11:33:01;;;;;;;8.70;7.88;;;;;;;;;;5027590;28;20036;-62
2023/08/17 11:35:27;;;;;;;9.80;7.80;;;;;;;;;;5030174;28;20068;-62
2023/08/17 11:37:53;;;;;;;9.43;8.00;;;;;;;;;;5030966;28;20046;-63
2023/08/17 11:40:19;;;;;;;9.20;8.30;;;;;;;;;;5029118;28;20040;-63
2023/08/17 11:42:46;;;;;;;11.02;7.70;;;;;;;;;;5030567;28;20051;-63
2023/08/17 11:45:13;;;;;;;9.05;7.85;;;;;;;;;;5026621;28;20038;-62
2023/08/17 11:47:40;;;;;;;10.50;8.55;;;;;;;;;;5032440;28;20076;-62
2023/08/17 11:50:12;;;;;;;9.15;8.25;;;;;;;;;;5031372;28;20036;-62
2023/08/17 11:52:38;;;;;;;10.50;7.78;;;;;;;;;;5035711;28;20048;-62
2023/08/17 11:55:11;;;;;;;10.38;8.45;;;;;;;;;;5037019;28;20026;-62
2023/08/17 11:57:40;;;;;;;13.02;8.05;;;;;;;;;;5030907;28;20421;-62
2023/08/17 12:00:09;;;;;;;8.02;7.15;;;;;;;;;;5030951;28;20045;-63
2023/08/17 12:02:41;;;;;;;9.25;8.25;;;;;;;;;;5028777;28;20034;-62
2023/08/17 12:05:11;;;;;;;9.07;7.90;;;;;;;;;;5039875;28;20038;-63
2023/08/17 12:07:37;;;;;;;9.05;8.07;;;;;;;;;;5024748;28;20041;-62
2023/08/17 12:10:04;;;;;;;10.52;8.48;;;;;;;;;;5028892;28;20402;-62
2023/08/17 12:12:37;;;;;;;8.88;7.82;;;;;;;;;;5027998;28;20045;-62
2023/08/17 12:15:04;;;;;;;12.00;8.32;;;;;;;;;;5031299;28;20037;-62
2023/08/17 12:17:30;;;;;;;10.15;8.27;;;;;;;;;;5027885;28;20033;-62
2023/08/17 12:19:58;;;;;;;11.50;8.35;;;;;;;;;;5027054;28;20055;-62
2023/08/17 12:22:25;;;;;;;9.63;8.50;;;;;;;;;;5025589;28;20057;-62
2023/08/17 12:24:52;;;;;;;10.73;8.37;;;;;;;;;;5026616;28;20497;-62
2023/08/17 12:27:22;;;;;;;13.02;8.55;;;;;;;;;;5031909;28;20798;-62
2023/08/17 12:29:50;;;;;;;10.52;8.52;;;;;;;;;;5031421;28;20050;-61
2023/08/17 12:32:19;;;;;;;9.98;8.65;;;;;;;;;;5020963;28;20041;-62
2023/08/17 12:34:46;;;;;;;9.23;7.90;;;;;;;;;;5021723;28;20037;-62
2023/08/17 12:37:18;;;;;;;8.82;7.75;;;;;;;;;;5034998;28;20053;-62
2023/08/17 12:39:45;;;;;;;10.88;8.00;;;;;;;;;;5034038;28;20028;-62
2023/08/17 12:42:11;;;;;;;9.90;8.05;;;;;;;;;;5034984;28;20053;-62
2023/08/17 12:44:37;;;;;;;9.68;8.65;;;;;;;;;;5030914;28;20049;-62
2023/08/17 12:47:03;;;;;;;11.45;8.40;;;;;;;;;;5028269;28;20033;-62
2023/08/17 12:49:30;;;;;;;12.50;8.52;;;;;;;;;;5039393;28;20450;-62
2023/08/17 12:51:56;;;;;;;11.02;8.18;;;;;;;;;;5030881;28;20033;-62
2023/08/17 12:54:22;;;;;;;10.15;8.23;;;;;;;;;;5009066;28;20410;-62
2023/08/17 12:56:48;;;;;;;9.85;8.27;;;;;;;;;;5026846;28;20029;-62
2023/08/17 12:59:14;;;;;;;11.82;8.32;;;;;;;;;;5033119;28;20048;-62
2023/08/17 13:01:41;;;;;;;9.65;8.45;;;;;;;;;;5043904;28;20037;-63
2023/08/17 13:04:07;;;;;;;9.82;8.68;;;;;;;;;;5031046;28;20052;-62
2023/08/17 13:06:34;;;;;;;13.50;9.13;;;;;;;;;;5031826;28;20048;-62
2023/08/17 13:09:00;;;;;;;13.63;8.63;;;;;;;;;;5029986;28;20515;-62
2023/08/17 13:11:26;;;;;;;9.52;8.10;;;;;;;;;;5035217;28;20046;-60
2023/08/17 13:13:52;;;;;;;14.80;10.00;;;;;;;;;;5033001;28;20053;-60
2023/08/17 13:16:18;;;;;;;10.00;8.98;;;;;;;;;;5031540;28;20523;-59
2023/08/17 13:18:44;;;;;;;13.20;9.43;;;;;;;;;;5034073;28;20044;-61
2023/08/17 13:21:15;;;;;;;12.00;9.07;;;;;;;;;;5036458;28;20029;-62
2023/08/17 13:23:41;;;;;;;10.93;9.10;;;;;;;;;;5031688;28;20073;-60
2023/08/17 13:26:07;;;;;;;11.20;9.00;;;;;;;;;;5026495;28;20041;-60
2023/08/17 13:28:33;;;;;;;11.25;9.63;;;;;;;;;;5036154;28;20045;-61
2023/08/17 13:31:00;;;;;;;13.60;9.93;;;;;;;;;;5038563;28;20060;-61
2023/08/17 13:33:29;;;;;;;10.95;8.90;;;;;;;;;;5032073;28;20041;-61
2023/08/17 13:35:55;;;;;;;11.38;9.45;;;;;;;;;;5025335;28;20041;-61
2023/08/17 13:38:21;;;;;;;14.30;9.63;;;;;;;;;;5037163;28;20033;-61
2023/08/17 13:40:47;;;;;;;10.05;9.05;;;;;;;;;;5026721;28;20420;-62
2023/08/17 13:43:13;;;;;;;12.65;9.23;;;;;;;;;;5027490;28;20058;-62
2023/08/17 13:45:40;;;;;;;11.57;9.93;;;;;;;;;;5027921;28;20386;-62
2023/08/17 13:48:07;;;;;;;11.68;9.52;;;;;;;;;;5038928;28;20036;-62
2023/08/17 13:50:39;;;;;;;13.32;10.27;;;;;;;;;;5039418;28;20400;-60
2023/08/17 13:53:06;;;;;;;13.65;9.93;;;;;;;;;;5031664;28;20044;-61
2023/08/17 13:55:32;;;;;;;11.82;9.73;;;;;;;;;;5039118;28;20038;-62
2023/08/17 13:58:01;;;;;;;13.25;9.88;;;;;;;;;;5035113;28;20044;-61
2023/08/17 14:00:27;;;;;;;10.07;9.07;;;;;;;;;;5041136;28;20040;-62
2023/08/17 14:02:56;;;;;;;;;;;;;;;;;;5030226;28;20490;-61
2023/08/17 14:05:22;;;;;;;14.02;10.20;;;;;;;;;;5034176;28;19923;-62
2023/08/17 14:07:50;;;;;;;16.02;10.30;;;;;;;;;;5028712;28;20053;-62
2023/08/17 14:10:17;;;;;;;12.68;9.80;;;;;;;;;;5034133;28;20037;-61
2023/08/17 14:12:43;;;;;;;11.05;9.43;;;;;;;;;;5029115;28;20409;-61
2023/08/17 14:15:09;;;;;;;11.20;9.70;;;;;;;;;;5032465;28;20038;-61
2023/08/17 14:17:35;;;;;;;13.05;10.70;;;;;;;;;;5032939;28;20045;-61
2023/08/17 14:20:05;;;;;;;15.20;10.98;;;;;;;;;;5031053;28;20037;-61
2023/08/17 14:22:32;;;;;;;17.08;11.73;;;;;;;;;;5026436;28;20421;-62
2023/08/17 14:24:59;;;;;;;14.00;10.02;;;;;;;;;;5031638;28;20042;-61
2023/08/17 14:27:25;;;;;;;13.13;10.65;;;;;;;;;;5029896;28;20041;-61
2023/08/17 14:29:51;;;;;;;14.88;10.40;;;;;;;;;;5035287;28;20049;-61